createdAt,value
2022-10-22T00:03:11.924Z,29.60
2022-10-22T00:06:28.309Z,30.33
2022-10-22T00:09:44.589Z,31.48
2022-10-22T00:13:02.612Z,30.63
2022-10-22T00:16:19.174Z,28.35
2022-10-22T00:19:35.376Z,29.85
2022-10-22T00:26:07.565Z,28.75
2022-10-22T00:29:26.946Z,27.73
2022-10-22T00:35:57.204Z,27.68
2022-10-22T00:39:13.939Z,26.75
2022-10-22T00:42:33.153Z,26.75
2022-10-22T00:45:49.996Z,25.38
2022-10-22T00:49:08.694Z,25.60
2022-10-22T00:52:25.007Z,25.58
2022-10-22T00:55:43.049Z,25.75
2022-10-22T00:59:03.452Z,27.83
2022-10-22T01:02:19.676Z,25.45
2022-10-22T01:05:46.071Z,26.40
2022-10-22T01:09:11.887Z,26.53
2022-10-22T01:12:37.255Z,26.73
2022-10-22T01:15:58.908Z,27.35
2022-10-22T01:19:34.710Z,26.78
2022-10-22T01:22:57.908Z,27.20
2022-10-22T01:26:19.094Z,25.55
2022-10-22T01:29:39.542Z,26.93
2022-10-22T01:33:00.568Z,26.65
2022-10-22T01:36:19.194Z,26.08
2022-10-22T01:39:37.349Z,26.95
2022-10-22T01:43:04.653Z,26.15
2022-10-22T01:46:24.031Z,26.03
2022-10-22T01:49:48.158Z,27.23
2022-10-22T01:53:25.606Z,26.68
2022-10-22T01:56:53.783Z,27.05
2022-10-22T02:00:14.391Z,26.40
2022-10-22T02:03:36.316Z,27.18
2022-10-22T02:06:55.855Z,26.40
2022-10-22T02:10:14.585Z,26.23
2022-10-22T02:13:34.376Z,26.58
2022-10-22T02:16:54.036Z,25.63
2022-10-22T02:20:16.165Z,26.63
2022-10-22T02:23:33.012Z,26.30
2022-10-22T02:26:55.119Z,25.75
2022-10-22T02:30:20.347Z,26.20
2022-10-22T02:33:40.894Z,25.10
2022-10-22T02:36:59.521Z,25.75
2022-10-22T02:40:17.332Z,25.97
2022-10-22T02:43:34.365Z,26.93
2022-10-22T02:46:52.383Z,27.18
2022-10-22T02:50:10.373Z,27.10
2022-10-22T02:53:26.767Z,25.68
2022-10-22T02:56:43.108Z,25.03
2022-10-22T02:59:59.358Z,26.08
2022-10-22T03:03:15.607Z,26.63
2022-10-22T03:06:33.693Z,25.63
2022-10-22T03:09:49.800Z,25.73
2022-10-22T03:13:08.361Z,27.28
2022-10-22T03:16:24.489Z,28.00
2022-10-22T03:19:41.065Z,26.30
2022-10-22T03:22:58.510Z,26.15
2022-10-22T03:26:16.333Z,26.70
2022-10-22T03:29:34.801Z,27.20
2022-10-22T03:32:54.372Z,26.73
2022-10-22T03:36:12.880Z,26.23
2022-10-22T03:39:32.469Z,25.35
2022-10-22T03:42:50.296Z,25.70
2022-10-22T03:46:06.602Z,24.08
2022-10-22T03:49:24.701Z,25.80
2022-10-22T03:52:46.021Z,24.08
2022-10-22T03:56:02.230Z,23.85
2022-10-22T03:59:18.448Z,24.98
2022-10-22T04:02:34.603Z,25.68
2022-10-22T04:05:50.767Z,25.53
2022-10-22T04:09:07.336Z,25.00
2022-10-22T04:12:23.643Z,24.88
2022-10-22T04:15:39.787Z,25.68
2022-10-22T04:18:56.901Z,24.78
2022-10-22T04:22:12.977Z,25.80
2022-10-22T04:25:29.083Z,27.83
2022-10-22T04:28:45.266Z,25.03
2022-10-22T04:32:02.969Z,24.88
2022-10-22T04:35:19.686Z,25.75
2022-10-22T04:38:36.843Z,25.85
2022-10-22T04:41:52.908Z,24.40
2022-10-22T04:45:09.205Z,23.93
2022-10-22T04:48:25.352Z,24.45
2022-10-22T04:51:42.044Z,24.40
2022-10-22T04:54:58.377Z,24.30
2022-10-22T04:58:14.588Z,23.30
2022-10-22T05:01:35.785Z,23.70
2022-10-22T05:04:53.513Z,24.43
2022-10-22T05:08:09.856Z,24.43
2022-10-22T05:11:30.283Z,25.73
2022-10-22T05:14:46.398Z,24.60
2022-10-22T05:18:02.476Z,24.93
2022-10-22T05:21:23.006Z,24.03
2022-10-22T05:24:41.897Z,25.23
2022-10-22T05:28:00.503Z,27.23
2022-10-22T05:31:19.449Z,25.83
2022-10-22T05:34:36.877Z,24.85
2022-10-22T05:37:53.049Z,27.03
2022-10-22T05:41:15.961Z,25.45
2022-10-22T05:44:32.059Z,25.38
2022-10-22T05:47:49.634Z,25.15
2022-10-22T05:51:09.534Z,26.58
2022-10-22T05:54:30.730Z,25.70
2022-10-22T05:57:46.951Z,25.73
2022-10-22T06:01:08.316Z,26.98
2022-10-22T06:04:24.553Z,25.70
2022-10-22T06:07:40.993Z,26.80
2022-10-22T06:10:57.769Z,25.30
2022-10-22T06:14:15.096Z,25.33
2022-10-22T06:17:31.216Z,25.88
2022-10-22T06:20:48.466Z,25.45
2022-10-22T06:24:05.997Z,26.35
2022-10-22T06:27:22.162Z,26.05
2022-10-22T06:30:41.759Z,25.48
2022-10-22T06:33:56.803Z,23.90
2022-10-22T06:37:14.666Z,24.83
2022-10-22T06:40:33.275Z,24.98
2022-10-22T06:43:51.026Z,25.38
2022-10-22T06:47:07.591Z,23.43
2022-10-22T06:50:25.659Z,22.75
2022-10-22T06:53:43.315Z,22.75
2022-10-22T06:56:59.777Z,22.60
2022-10-22T07:00:23.031Z,23.45
2022-10-22T07:03:39.326Z,22.55
2022-10-22T07:06:55.370Z,24.63
2022-10-22T07:10:12.741Z,24.25
2022-10-22T07:13:32.564Z,23.75
2022-10-22T07:16:49.046Z,23.60
2022-10-22T07:20:06.546Z,24.88
2022-10-22T07:23:22.871Z,24.10
2022-10-22T07:26:39.490Z,22.58
2022-10-22T07:29:55.897Z,21.53
2022-10-22T07:33:12.059Z,22.53
2022-10-22T07:36:28.504Z,21.43
2022-10-22T07:39:46.955Z,19.43
2022-10-22T07:43:03.112Z,16.83
2022-10-22T07:46:19.233Z,18.43
2022-10-22T07:49:38.728Z,18.55
2022-10-22T07:52:57.401Z,16.88
2022-10-22T07:56:14.768Z,19.88
2022-10-22T07:59:33.597Z,17.08
2022-10-22T08:02:51.079Z,19.05
2022-10-22T08:06:08.160Z,18.70
2022-10-22T08:09:24.433Z,18.08
2022-10-22T08:12:40.917Z,17.53
2022-10-22T08:16:08.890Z,16.65
2022-10-22T08:19:27.133Z,16.23
2022-10-22T08:22:43.508Z,16.03
2022-10-22T08:26:00.467Z,19.18
2022-10-22T08:29:17.360Z,15.95
2022-10-22T08:32:36.109Z,15.58
2022-10-22T08:35:57.083Z,14.85
2022-10-22T08:39:13.699Z,15.33
2022-10-22T08:43:00.239Z,15.38
2022-10-22T08:46:46.969Z,14.58
2022-10-22T08:50:03.757Z,14.25
2022-10-22T08:53:28.625Z,13.90
2022-10-22T08:56:48.517Z,14.45
2022-10-22T09:00:10.808Z,13.80
2022-10-22T09:03:47.902Z,13.75
2022-10-22T09:07:05.860Z,14.98
2022-10-22T09:10:27.487Z,15.98
2022-10-22T09:13:44.012Z,15.78
2022-10-22T09:17:22.206Z,15.20
2022-10-22T09:20:44.826Z,16.90
2022-10-22T09:24:13.973Z,15.90
2022-10-22T09:27:36.089Z,15.50
2022-10-22T09:30:52.584Z,15.93
2022-10-22T09:34:10.466Z,16.55
2022-10-22T09:37:32.349Z,16.20
2022-10-22T09:40:56.792Z,15.18
2022-10-22T09:44:14.989Z,17.68
2022-10-22T09:48:00.945Z,16.30
2022-10-22T09:51:14.075Z,16.40
2022-10-22T09:54:35.233Z,15.53
2022-10-22T09:57:51.596Z,14.90
2022-10-22T10:01:09.546Z,16.18
2022-10-22T10:04:31.155Z,16.23
2022-10-22T10:07:57.213Z,16.65
2022-10-22T10:11:18.204Z,16.85
2022-10-22T10:14:43.471Z,15.55
2022-10-22T10:18:06.843Z,17.85
2022-10-22T10:21:31.374Z,16.68
2022-10-22T10:25:07.149Z,17.05
2022-10-22T10:28:58.878Z,16.38
2022-10-22T10:32:31.658Z,17.90
2022-10-22T10:35:56.413Z,17.75
2022-10-22T10:39:19.078Z,16.70
2022-10-22T10:42:41.597Z,17.18
2022-10-22T10:46:10.386Z,16.50
2022-10-22T10:49:32.031Z,16.07
2022-10-22T10:52:57.450Z,16.00
2022-10-22T10:56:19.332Z,14.85
2022-10-22T10:59:48.400Z,15.00
2022-10-22T11:03:43.544Z,15.45
2022-10-22T11:07:16.728Z,16.10
2022-10-22T11:10:30.534Z,15.78
2022-10-22T11:13:53.382Z,16.15
2022-10-22T11:17:17.641Z,14.95
2022-10-22T11:20:41.673Z,16.30
2022-10-22T11:24:06.937Z,17.28
2022-10-22T11:27:28.032Z,17.10
2022-10-22T11:30:49.548Z,16.95
2022-10-22T11:34:32.582Z,16.65
2022-10-22T11:37:39.925Z,16.60
2022-10-22T11:41:05.108Z,17.08
2022-10-22T11:44:31.047Z,18.33
2022-10-22T11:48:00.070Z,19.40
2022-10-22T11:51:40.535Z,19.05
2022-10-22T11:54:56.966Z,18.70
2022-10-22T11:58:33.498Z,18.98
2022-10-22T12:01:54.391Z,18.45
2022-10-22T12:05:51.423Z,19.48
2022-10-22T12:09:15.381Z,22.03
2022-10-22T12:12:33.875Z,20.08
2022-10-22T12:16:05.655Z,20.83
2022-10-22T12:19:38.571Z,20.50
2022-10-22T12:23:00.195Z,20.30
2022-10-22T12:26:35.088Z,20.55
2022-10-22T12:29:51.594Z,20.88
2022-10-22T12:33:15.594Z,22.05
2022-10-22T12:36:34.079Z,21.50
2022-10-22T12:39:50.618Z,21.53
2022-10-22T12:43:12.649Z,20.40
2022-10-22T12:46:29.266Z,19.83
2022-10-22T12:49:51.472Z,19.53
2022-10-22T12:53:08.082Z,20.23
2022-10-22T12:56:33.951Z,20.70
2022-10-22T12:59:54.037Z,21.28
2022-10-22T13:03:13.810Z,21.80
2022-10-22T13:06:38.153Z,23.05
2022-10-22T13:09:58.606Z,24.35
2022-10-22T13:13:28.698Z,23.95
2022-10-22T13:16:46.858Z,24.30
2022-10-22T13:20:23.855Z,24.60
2022-10-22T13:23:41.729Z,25.85
2022-10-22T13:27:02.286Z,25.85
2022-10-22T13:30:32.763Z,25.55
2022-10-22T13:33:53.180Z,25.15
2022-10-22T13:37:13.745Z,26.13
2022-10-22T13:40:30.536Z,24.93
2022-10-22T13:43:47.150Z,26.18
2022-10-22T13:47:20.731Z,26.50
2022-10-22T13:50:37.090Z,26.85
2022-10-22T13:53:56.021Z,26.20
2022-10-22T13:57:15.453Z,26.78
2022-10-22T14:00:34.767Z,26.08
2022-10-22T14:07:09.533Z,26.05
2022-10-22T14:10:31.694Z,26.53
2022-10-22T14:13:52.262Z,26.45
2022-10-22T14:17:21.094Z,27.98
2022-10-22T14:20:46.629Z,25.88
2022-10-22T14:24:03.307Z,27.03
2022-10-22T14:27:22.370Z,26.55
2022-10-22T14:30:39.162Z,30.55
2022-10-22T14:33:57.382Z,30.10
2022-10-22T14:40:29.061Z,30.65
2022-10-22T14:43:47.196Z,28.38
2022-10-22T14:47:05.635Z,31.43
2022-10-22T14:50:22.232Z,30.58
2022-10-22T14:53:38.535Z,29.85
2022-10-22T14:56:55.084Z,29.85
2022-10-22T15:00:19.071Z,29.53
2022-10-22T15:03:36.865Z,31.15
2022-10-22T15:06:55.325Z,30.10
2022-10-22T15:10:26.184Z,29.73
2022-10-22T15:13:44.454Z,29.45
2022-10-22T15:17:05.835Z,30.03
2022-10-22T15:20:25.923Z,30.25
2022-10-22T15:23:47.242Z,29.65
2022-10-22T15:27:04.711Z,31.28
2022-10-22T15:30:22.842Z,30.20
2022-10-22T15:33:39.779Z,30.30
2022-10-22T15:36:56.596Z,31.20
2022-10-22T15:40:21.778Z,30.70
2022-10-22T15:43:41.355Z,29.90
2022-10-22T15:47:08.749Z,30.25
2022-10-22T15:50:27.860Z,29.30
2022-10-22T15:53:45.868Z,30.90
2022-10-22T15:57:04.318Z,31.53
2022-10-22T16:00:23.786Z,33.23
2022-10-22T16:03:44.219Z,33.70
2022-10-22T16:07:14.718Z,34.08
2022-10-22T16:10:34.279Z,32.73
2022-10-22T16:14:11.177Z,38.20
2022-10-22T16:17:40.682Z,41.85
2022-10-22T16:20:57.386Z,38.00
2022-10-22T16:24:19.147Z,37.38
2022-10-22T16:27:42.815Z,36.10
2022-10-22T16:31:09.821Z,37.75
2022-10-22T16:34:26.360Z,38.23
2022-10-22T16:37:46.135Z,38.57
2022-10-22T16:41:13.932Z,37.45
2022-10-22T16:44:30.724Z,38.70
2022-10-22T16:47:53.183Z,36.13
2022-10-22T16:51:15.520Z,37.85
2022-10-22T16:54:33.461Z,38.70
2022-10-22T16:57:51.850Z,52.40
2022-10-22T17:01:10.341Z,41.25
2022-10-22T17:04:26.993Z,36.70
2022-10-22T17:07:43.536Z,38.70
2022-10-22T17:10:59.861Z,40.40
2022-10-22T17:14:16.926Z,39.78
2022-10-22T17:17:34.764Z,39.93
2022-10-22T17:20:58.057Z,40.55
2022-10-22T17:24:16.428Z,42.80
2022-10-22T17:27:38.206Z,41.25
2022-10-22T17:31:12.782Z,42.78
2022-10-22T17:34:35.069Z,46.13
2022-10-22T17:37:52.052Z,47.75
2022-10-22T17:41:14.599Z,48.10
2022-10-22T17:44:37.340Z,51.40
2022-10-22T17:47:54.049Z,51.00
2022-10-22T17:51:13.267Z,53.05
2022-10-22T17:57:43.738Z,51.98
2022-10-22T18:01:00.315Z,52.55
2022-10-22T18:04:19.455Z,53.75
2022-10-22T18:07:35.808Z,64.90
2022-10-22T18:11:09.687Z,70.60
2022-10-22T18:14:28.080Z,54.53
2022-10-22T18:17:47.566Z,51.97
2022-10-22T18:21:06.055Z,53.30
2022-10-22T18:24:24.149Z,53.08
2022-10-22T18:27:43.021Z,53.68
2022-10-22T18:31:11.576Z,52.48
2022-10-22T18:34:31.349Z,50.05
2022-10-22T18:38:01.048Z,44.70
2022-10-22T18:41:19.899Z,42.68
2022-10-22T18:44:38.845Z,40.10
2022-10-22T18:47:57.454Z,36.80
2022-10-22T18:51:31.159Z,35.30
2022-10-22T18:54:57.197Z,33.75
2022-10-22T18:58:17.404Z,31.70
2022-10-22T19:01:43.869Z,31.15
2022-10-22T19:05:05.112Z,31.08
2022-10-22T19:08:22.428Z,28.15
2022-10-22T19:11:39.428Z,27.73
2022-10-22T19:14:55.979Z,27.58
2022-10-22T19:21:32.503Z,23.83
2022-10-22T19:24:49.131Z,25.58
2022-10-22T19:28:05.597Z,25.45
2022-10-22T19:31:30.748Z,24.30
2022-10-22T19:34:47.432Z,24.25
2022-10-22T19:38:03.800Z,23.78
2022-10-22T19:41:26.259Z,24.00
2022-10-22T19:44:43.981Z,23.25
2022-10-22T19:48:01.831Z,22.45
2022-10-22T19:51:25.032Z,23.40
2022-10-22T19:54:45.499Z,22.78
2022-10-22T19:58:01.821Z,22.90
2022-10-22T20:01:28.164Z,22.88
2022-10-22T20:04:50.181Z,24.00
2022-10-22T20:08:08.042Z,23.95
2022-10-22T20:11:32.249Z,23.78
2022-10-22T20:14:49.980Z,23.23
2022-10-22T20:18:09.849Z,22.65
2022-10-22T20:21:32.777Z,23.80
2022-10-22T20:24:50.049Z,23.65
2022-10-22T20:28:07.197Z,23.90
2022-10-22T20:31:30.824Z,23.15
2022-10-22T20:34:49.601Z,23.33
2022-10-22T20:38:06.047Z,24.38
2022-10-22T20:41:29.879Z,23.80
2022-10-22T20:44:46.163Z,23.63
2022-10-22T20:48:03.209Z,23.88
2022-10-22T20:51:21.638Z,23.20
2022-10-22T20:54:40.452Z,24.27
2022-10-22T20:58:00.689Z,24.53
2022-10-22T21:01:27.835Z,24.48
2022-10-22T21:04:45.721Z,24.63
2022-10-22T21:08:05.853Z,23.98
2022-10-22T21:11:25.279Z,23.40
2022-10-22T21:17:55.865Z,22.40
2022-10-22T21:21:17.855Z,23.40
2022-10-22T21:24:34.456Z,24.20
2022-10-22T21:27:50.966Z,24.75
2022-10-22T21:31:08.463Z,22.95
2022-10-22T21:34:34.225Z,24.63
2022-10-22T21:37:49.092Z,24.78
2022-10-22T21:41:07.020Z,23.58
2022-10-22T21:44:23.404Z,22.83
2022-10-22T21:47:40.321Z,24.18
2022-10-22T21:50:56.891Z,22.93
2022-10-22T21:54:13.423Z,22.85
2022-10-22T21:57:29.582Z,22.43
2022-10-22T22:00:45.877Z,21.43
2022-10-22T22:04:03.030Z,21.85
2022-10-22T22:07:19.235Z,22.08
2022-10-22T22:10:35.674Z,20.98
2022-10-22T22:13:54.766Z,21.10
2022-10-22T22:17:11.239Z,19.73
2022-10-22T22:20:27.930Z,19.28
2022-10-22T22:23:47.697Z,19.50
2022-10-22T22:27:03.955Z,19.53
2022-10-22T22:30:22.604Z,19.53
2022-10-22T22:33:38.844Z,18.73
2022-10-22T22:36:56.222Z,18.75
2022-10-22T22:40:14.133Z,18.33
2022-10-22T22:43:30.331Z,18.10
2022-10-22T22:46:47.028Z,17.28
2022-10-22T22:50:03.128Z,17.28
2022-10-22T22:53:19.364Z,17.35
2022-10-22T22:56:38.027Z,16.85
2022-10-22T22:59:56.780Z,15.80
2022-10-22T23:03:13.144Z,16.65
2022-10-22T23:06:33.719Z,16.13
2022-10-22T23:09:50.095Z,15.88
2022-10-22T23:13:06.204Z,16.13
2022-10-22T23:16:26.211Z,16.13
2022-10-22T23:19:43.035Z,15.58
2022-10-22T23:22:59.091Z,17.63
2022-10-22T23:26:18.477Z,16.78
2022-10-22T23:29:37.143Z,16.58
2022-10-22T23:32:53.323Z,16.30
2022-10-22T23:36:12.665Z,17.65
2022-10-22T23:39:33.796Z,17.50
2022-10-22T23:42:49.921Z,18.63
2022-10-22T23:46:06.120Z,18.45
2022-10-22T23:49:23.446Z,19.00
2022-10-22T23:52:40.162Z,19.38
2022-10-22T23:55:57.961Z,18.93
2022-10-22T23:59:15.932Z,17.75
